createdAt,value
2023-05-09T00:02:23.649Z,19.93
2023-05-09T00:04:51.613Z,17.30
2023-05-09T00:07:19.578Z,19.77
2023-05-09T00:09:47.473Z,23.90
2023-05-09T00:12:15.744Z,16.70
2023-05-09T00:14:45.424Z,18.90
2023-05-09T00:17:15.764Z,17.23
2023-05-09T00:19:43.664Z,20.90
2023-05-09T00:22:12.981Z,20.90
2023-05-09T00:24:41.554Z,19.03
2023-05-09T00:27:09.941Z,19.17
2023-05-09T00:29:37.912Z,19.03
2023-05-09T00:32:07.324Z,16.50
2023-05-09T00:34:35.465Z,20.37
2023-05-09T00:37:04.232Z,21.93
2023-05-09T00:39:32.050Z,21.17
2023-05-09T00:41:59.973Z,19.50
2023-05-09T00:44:27.944Z,17.37
2023-05-09T00:46:55.914Z,18.10
2023-05-09T00:49:25.163Z,20.97
2023-05-09T00:51:53.798Z,22.87
2023-05-09T00:54:21.711Z,19.43
2023-05-09T00:56:49.634Z,19.30
2023-05-09T00:59:18.055Z,16.80
2023-05-09T01:01:46.924Z,19.87
2023-05-09T01:04:15.280Z,18.00
2023-05-09T01:06:55.855Z,19.43
2023-05-09T01:09:28.815Z,18.57
2023-05-09T01:12:07.906Z,26.00
2023-05-09T01:14:45.785Z,19.07
2023-05-09T01:17:21.465Z,19.43
2023-05-09T01:20:00.057Z,20.00
2023-05-09T01:22:34.997Z,18.63
2023-05-09T01:25:41.705Z,21.07
2023-05-09T01:28:15.422Z,17.40
2023-05-09T01:30:47.832Z,17.03
2023-05-09T01:33:20.326Z,16.33
2023-05-09T01:35:52.558Z,16.73
2023-05-09T01:38:26.891Z,18.50
2023-05-09T01:40:58.411Z,17.97
2023-05-09T01:43:31.091Z,16.83
2023-05-09T01:46:02.053Z,17.60
2023-05-09T01:48:32.648Z,20.00
2023-05-09T01:51:02.748Z,16.40
2023-05-09T01:53:32.341Z,15.97
2023-05-09T01:56:01.666Z,16.87
2023-05-09T01:58:31.008Z,15.73
2023-05-09T02:01:02.045Z,20.30
2023-05-09T02:03:30.508Z,17.53
2023-05-09T02:05:59.371Z,23.23
2023-05-09T02:08:28.463Z,22.10
2023-05-09T02:10:56.589Z,21.27
2023-05-09T02:13:24.934Z,23.30
2023-05-09T02:15:53.679Z,24.47
2023-05-09T02:18:23.038Z,25.23
2023-05-09T02:20:51.002Z,25.60
2023-05-09T02:23:19.087Z,22.07
2023-05-09T02:25:48.043Z,23.30
2023-05-09T02:28:17.453Z,24.50
2023-05-09T02:30:47.072Z,22.00
2023-05-09T02:33:15.871Z,24.07
2023-05-09T02:35:47.777Z,23.00
2023-05-09T02:38:17.520Z,22.70
2023-05-09T02:40:48.420Z,22.77
2023-05-09T02:43:17.391Z,23.37
2023-05-09T02:45:45.852Z,25.20
2023-05-09T02:48:16.981Z,22.93
2023-05-09T02:50:47.029Z,22.77
2023-05-09T02:53:15.009Z,23.33
2023-05-09T02:55:43.132Z,18.50
2023-05-09T02:58:14.674Z,19.43
2023-05-09T03:00:44.589Z,18.43
2023-05-09T03:03:14.730Z,20.70
2023-05-09T03:05:43.370Z,22.23
2023-05-09T03:08:12.846Z,19.53
2023-05-09T03:10:40.890Z,21.63
2023-05-09T03:13:10.353Z,21.40
2023-05-09T03:15:38.387Z,21.33
2023-05-09T03:18:07.887Z,22.27
2023-05-09T03:20:38.948Z,20.97
2023-05-09T03:23:07.368Z,19.83
2023-05-09T03:25:37.008Z,22.60
2023-05-09T03:28:05.232Z,19.90
2023-05-09T03:30:33.245Z,22.10
2023-05-09T03:33:04.997Z,22.77
2023-05-09T03:35:33.267Z,22.37
2023-05-09T03:38:01.905Z,25.47
2023-05-09T03:40:33.536Z,20.13
2023-05-09T03:43:09.452Z,20.43
2023-05-09T03:45:38.453Z,22.13
2023-05-09T03:48:10.027Z,24.50
2023-05-09T03:50:45.859Z,21.27
2023-05-09T03:53:15.070Z,20.03
2023-05-09T03:55:44.686Z,20.03
2023-05-09T03:58:16.229Z,65.53
2023-05-09T04:00:44.945Z,24.90
2023-05-09T04:03:19.780Z,20.63
2023-05-09T04:05:50.248Z,21.33
2023-05-09T04:08:28.542Z,19.33
2023-05-09T04:10:56.914Z,23.70
2023-05-09T04:13:28.257Z,22.60
2023-05-09T04:15:57.910Z,22.57
2023-05-09T04:18:27.301Z,23.10
2023-05-09T04:20:55.570Z,19.80
2023-05-09T04:23:24.570Z,18.60
2023-05-09T04:25:53.986Z,17.47
2023-05-09T04:28:22.116Z,18.97
2023-05-09T04:30:52.296Z,19.17
2023-05-09T04:33:22.223Z,18.63
2023-05-09T04:35:52.531Z,16.60
2023-05-09T04:38:21.326Z,16.47
2023-05-09T04:40:49.677Z,16.93
2023-05-09T04:43:17.832Z,18.10
2023-05-09T04:45:46.288Z,16.77
2023-05-09T04:48:17.365Z,19.17
2023-05-09T04:50:48.421Z,16.53
2023-05-09T04:53:16.548Z,17.47
2023-05-09T04:55:45.867Z,13.33
2023-05-09T04:58:14.335Z,13.40
2023-05-09T05:00:43.071Z,13.77
2023-05-09T05:03:11.693Z,12.77
2023-05-09T05:05:41.640Z,10.20
2023-05-09T05:08:09.901Z,11.13
2023-05-09T05:10:40.443Z,11.80
2023-05-09T05:13:11.628Z,13.17
2023-05-09T05:15:44.104Z,11.60
2023-05-09T05:18:12.272Z,9.57
2023-05-09T05:20:43.525Z,9.90
2023-05-09T05:23:12.154Z,9.20
2023-05-09T05:25:40.401Z,9.40
2023-05-09T05:28:08.504Z,9.43
2023-05-09T05:30:36.785Z,10.30
2023-05-09T05:33:05.270Z,9.87
2023-05-09T05:35:33.504Z,10.80
2023-05-09T05:38:03.009Z,10.67
2023-05-09T05:40:31.365Z,10.50
2023-05-09T05:43:02.861Z,12.60
2023-05-09T05:45:33.210Z,10.30
2023-05-09T05:48:04.541Z,10.30
2023-05-09T05:50:33.997Z,11.03
2023-05-09T05:53:03.530Z,11.00
2023-05-09T05:55:31.729Z,12.37
2023-05-09T05:57:59.853Z,11.20
2023-05-09T06:00:28.511Z,13.40
2023-05-09T06:03:03.351Z,11.20
2023-05-09T06:05:43.237Z,11.17
2023-05-09T06:08:13.659Z,15.07
2023-05-09T06:10:41.789Z,17.17
2023-05-09T06:13:09.973Z,18.17
2023-05-09T06:15:41.079Z,11.27
2023-05-09T06:18:09.381Z,11.03
2023-05-09T06:20:37.418Z,9.47
2023-05-09T06:23:05.462Z,12.87
2023-05-09T06:25:34.836Z,12.03
2023-05-09T06:28:02.814Z,10.10
2023-05-09T06:30:30.992Z,14.63
2023-05-09T06:33:01.181Z,10.23
2023-05-09T06:35:29.247Z,11.47
2023-05-09T06:37:57.180Z,11.17
2023-05-09T06:40:25.212Z,12.60
2023-05-09T06:42:54.852Z,10.47
2023-05-09T06:45:22.893Z,12.10
2023-05-09T06:47:51.151Z,8.90
2023-05-09T06:50:19.174Z,9.23
2023-05-09T06:52:47.149Z,12.53
2023-05-09T06:55:17.417Z,20.83
2023-05-09T06:57:45.685Z,9.17
2023-05-09T07:00:16.856Z,8.93
2023-05-09T07:02:44.842Z,8.20
2023-05-09T07:05:13.134Z,10.50
2023-05-09T07:07:41.447Z,9.07
2023-05-09T07:10:12.238Z,7.40
2023-05-09T07:12:40.750Z,8.10
2023-05-09T07:15:10.062Z,6.57
2023-05-09T07:17:39.608Z,9.63
2023-05-09T07:20:08.661Z,10.50
2023-05-09T07:22:37.767Z,10.83
2023-05-09T07:25:08.550Z,10.63
2023-05-09T07:27:36.826Z,7.97
2023-05-09T07:30:05.122Z,10.63
2023-05-09T07:32:33.418Z,10.20
2023-05-09T07:35:06.145Z,9.47
2023-05-09T07:37:34.827Z,8.37
2023-05-09T07:40:03.497Z,10.00
2023-05-09T07:42:32.704Z,9.13
2023-05-09T07:45:00.780Z,9.37
2023-05-09T07:47:28.892Z,10.73
2023-05-09T07:49:57.059Z,9.37
2023-05-09T07:52:26.608Z,7.47
2023-05-09T07:54:55.332Z,10.07
2023-05-09T07:57:23.836Z,10.67
2023-05-09T07:59:51.838Z,7.07
2023-05-09T08:02:20.060Z,13.97
2023-05-09T08:04:49.240Z,7.00
2023-05-09T08:07:17.452Z,8.13
2023-05-09T08:09:46.939Z,7.87
2023-05-09T08:12:14.869Z,8.23
2023-05-09T08:14:42.975Z,9.57
2023-05-09T08:17:11.453Z,10.10
2023-05-09T08:19:39.551Z,10.30
2023-05-09T08:22:07.633Z,10.60
2023-05-09T08:24:35.660Z,12.83
2023-05-09T08:27:05.370Z,16.50
2023-05-09T08:29:33.552Z,9.43
2023-05-09T08:32:01.661Z,12.70
2023-05-09T08:34:31.372Z,13.27
2023-05-09T08:36:59.507Z,13.10
2023-05-09T08:39:27.580Z,9.83
2023-05-09T08:41:59.950Z,10.87
2023-05-09T08:44:31.625Z,10.00
2023-05-09T08:47:02.550Z,12.13
2023-05-09T08:49:31.287Z,10.97
2023-05-09T08:52:00.017Z,7.70
2023-05-09T08:54:28.886Z,10.23
2023-05-09T08:56:57.858Z,9.90
2023-05-09T08:59:27.227Z,6.77
2023-05-09T09:01:57.182Z,7.27
2023-05-09T09:07:11.017Z,7.47
2023-05-09T09:09:45.632Z,5.77
2023-05-09T09:12:16.524Z,5.07
2023-05-09T09:14:54.046Z,5.73
2023-05-09T09:17:28.433Z,6.10
2023-05-09T09:20:00.316Z,12.77
2023-05-09T09:22:34.176Z,5.47
2023-05-09T09:25:02.655Z,10.27
2023-05-09T09:27:31.136Z,7.13
2023-05-09T09:30:08.201Z,4.70
2023-05-09T09:32:38.134Z,4.10
2023-05-09T09:35:08.012Z,6.63
2023-05-09T09:37:36.863Z,5.93
2023-05-09T09:40:05.275Z,5.27
2023-05-09T09:42:43.010Z,5.60
2023-05-09T09:45:13.523Z,6.57
2023-05-09T09:47:44.891Z,8.93
2023-05-09T09:50:15.108Z,13.30
2023-05-09T09:52:45.263Z,9.23
2023-05-09T09:55:14.195Z,11.50
2023-05-09T09:57:45.613Z,8.27
2023-05-09T10:00:16.023Z,3.50
2023-05-09T10:02:50.451Z,7.10
2023-05-09T10:05:25.522Z,5.13
2023-05-09T10:07:59.045Z,4.97
2023-05-09T10:10:28.671Z,5.90
2023-05-09T10:13:05.157Z,7.27
2023-05-09T10:15:45.003Z,5.90
2023-05-09T10:18:24.300Z,5.90
2023-05-09T10:21:01.211Z,8.93
2023-05-09T10:23:31.201Z,9.17
2023-05-09T10:26:06.124Z,8.60
2023-05-09T10:28:37.198Z,10.03
2023-05-09T10:31:13.989Z,8.77
2023-05-09T10:33:48.480Z,6.13
2023-05-09T10:36:18.876Z,5.83
2023-05-09T10:38:48.433Z,6.57
2023-05-09T10:41:18.724Z,4.03
2023-05-09T10:43:47.511Z,5.53
2023-05-09T10:46:16.455Z,7.40
2023-05-09T10:48:46.543Z,5.80
2023-05-09T10:51:14.919Z,5.70
2023-05-09T10:53:44.635Z,4.40
2023-05-09T10:56:24.775Z,3.77
2023-05-09T10:58:52.865Z,4.00
2023-05-09T11:01:32.955Z,6.57
2023-05-09T11:04:04.039Z,17.63
2023-05-09T11:06:49.463Z,4.10
2023-05-09T11:09:29.209Z,4.90
2023-05-09T11:11:58.882Z,5.20
2023-05-09T11:14:31.355Z,4.17
2023-05-09T11:17:01.036Z,5.23
2023-05-09T11:19:39.499Z,3.90
2023-05-09T11:22:15.567Z,3.47
2023-05-09T11:24:47.364Z,3.27
2023-05-09T11:27:16.706Z,3.30
2023-05-09T11:29:45.587Z,4.33
2023-05-09T11:32:16.374Z,5.00
2023-05-09T11:34:46.822Z,4.80
2023-05-09T11:37:18.008Z,9.70
2023-05-09T11:40:00.460Z,3.40
2023-05-09T11:42:35.150Z,2.73
2023-05-09T11:45:07.682Z,3.33
2023-05-09T11:47:38.134Z,6.07
2023-05-09T11:50:09.983Z,4.23
2023-05-09T11:52:39.377Z,4.03
2023-05-09T11:55:10.918Z,3.00
2023-05-09T11:57:42.305Z,4.97
2023-05-09T12:00:11.986Z,2.87
2023-05-09T12:02:40.907Z,2.17
2023-05-09T12:05:12.668Z,4.67
2023-05-09T12:07:45.116Z,3.77
2023-05-09T12:10:15.860Z,3.47
2023-05-09T12:12:56.609Z,2.63
2023-05-09T12:15:46.809Z,3.50
2023-05-09T12:18:37.459Z,3.13
2023-05-09T12:21:14.766Z,3.43
2023-05-09T12:23:53.515Z,3.67
2023-05-09T12:26:29.507Z,3.73
2023-05-09T12:29:02.639Z,7.23
2023-05-09T12:31:33.562Z,3.50
2023-05-09T12:34:02.749Z,3.00
2023-05-09T12:36:36.657Z,4.10
2023-05-09T12:39:10.546Z,3.63
2023-05-09T12:41:53.878Z,3.67
2023-05-09T12:45:05.645Z,4.70
2023-05-09T12:47:48.694Z,5.80
2023-05-09T12:50:46.433Z,3.03
2023-05-09T12:53:48.465Z,6.07
2023-05-09T12:56:22.998Z,3.07
2023-05-09T12:59:02.461Z,3.07
2023-05-09T13:01:40.195Z,3.30
2023-05-09T13:04:53.318Z,3.43
2023-05-09T13:07:58.025Z,8.17
2023-05-09T13:10:47.019Z,6.03
2023-05-09T13:13:31.513Z,3.13
2023-05-09T13:16:06.484Z,3.27
2023-05-09T13:18:35.396Z,2.30
2023-05-09T13:21:03.496Z,2.30
2023-05-09T13:23:31.681Z,3.37
2023-05-09T13:26:00.816Z,2.90
2023-05-09T13:28:28.681Z,7.60
2023-05-09T13:30:56.609Z,3.80
2023-05-09T13:33:26.255Z,3.13
2023-05-09T13:35:54.602Z,10.70
2023-05-09T13:38:23.659Z,2.70
2023-05-09T13:40:51.541Z,3.53
2023-05-09T13:43:20.818Z,4.67
2023-05-09T13:45:48.756Z,5.13
2023-05-09T13:48:16.751Z,3.33
2023-05-09T13:50:45.365Z,3.53
2023-05-09T13:53:13.327Z,3.43
2023-05-09T13:55:41.165Z,2.17
2023-05-09T13:58:08.979Z,4.17
2023-05-09T14:00:38.367Z,2.93
2023-05-09T14:03:06.357Z,1.83
2023-05-09T14:05:34.859Z,2.77
2023-05-09T14:08:03.545Z,2.90
2023-05-09T14:10:31.365Z,2.63
2023-05-09T14:12:59.469Z,2.00
2023-05-09T14:15:27.457Z,3.17
2023-05-09T14:17:57.090Z,2.07
2023-05-09T14:20:25.197Z,2.83
2023-05-09T14:22:55.068Z,11.90
2023-05-09T14:25:23.636Z,2.17
2023-05-09T14:27:51.517Z,1.80
2023-05-09T14:30:19.374Z,2.83
2023-05-09T14:32:47.182Z,2.03
2023-05-09T14:35:16.788Z,1.87
2023-05-09T14:37:44.758Z,2.60
2023-05-09T14:40:13.533Z,2.13
2023-05-09T14:42:41.622Z,3.43
2023-05-09T14:45:12.698Z,3.60
2023-05-09T14:47:41.241Z,2.83
2023-05-09T14:50:15.883Z,3.10
2023-05-09T14:52:45.574Z,3.10
2023-05-09T14:55:13.526Z,4.13
2023-05-09T14:57:41.405Z,2.80
2023-05-09T15:00:20.360Z,1.67
2023-05-09T15:02:50.834Z,5.60
2023-05-09T15:05:19.051Z,4.23
2023-05-09T15:07:48.316Z,3.53
2023-05-09T15:10:16.233Z,5.60
2023-05-09T15:12:46.714Z,1.73
2023-05-09T15:15:16.519Z,2.93
2023-05-09T15:17:46.273Z,2.43
2023-05-09T15:20:16.350Z,1.60
2023-05-09T15:22:44.623Z,5.50
2023-05-09T15:25:14.050Z,2.20
2023-05-09T15:27:41.948Z,1.40
2023-05-09T15:30:11.108Z,2.47
2023-05-09T15:32:41.529Z,3.80
2023-05-09T15:35:09.952Z,2.13
2023-05-09T15:37:37.912Z,2.87
2023-05-09T15:40:07.503Z,3.13
2023-05-09T15:42:37.140Z,3.83
2023-05-09T15:45:05.567Z,5.93
2023-05-09T15:47:33.614Z,1.83
2023-05-09T15:50:01.499Z,1.30
2023-05-09T15:52:29.380Z,1.90
2023-05-09T15:54:57.375Z,3.03
2023-05-09T15:57:25.967Z,2.23
2023-05-09T15:59:55.955Z,3.87
2023-05-09T16:02:24.066Z,1.43
2023-05-09T16:04:52.400Z,1.43
2023-05-09T16:07:20.741Z,1.63
2023-05-09T16:09:48.975Z,1.20
2023-05-09T16:12:16.949Z,6.10
2023-05-09T16:14:45.386Z,1.37
2023-05-09T16:17:14.579Z,1.67
2023-05-09T16:19:42.442Z,6.07
2023-05-09T16:22:10.379Z,2.77
2023-05-09T16:24:38.517Z,1.23
2023-05-09T16:27:06.469Z,1.97
2023-05-09T16:29:34.350Z,3.57
2023-05-09T16:32:02.361Z,4.17
2023-05-09T16:34:31.775Z,2.07
2023-05-09T16:36:59.647Z,2.27
2023-05-09T16:39:28.023Z,2.40
2023-05-09T16:41:56.315Z,1.63
2023-05-09T16:44:25.756Z,1.60
2023-05-09T16:46:53.716Z,2.00
2023-05-09T16:49:22.103Z,1.50
2023-05-09T16:51:51.257Z,4.93
2023-05-09T16:54:19.152Z,0.80
2023-05-09T16:56:47.854Z,0.70
2023-05-09T16:59:17.402Z,0.80
2023-05-09T17:01:46.427Z,2.83
2023-05-09T17:04:14.592Z,3.00
2023-05-09T17:06:42.674Z,7.90
2023-05-09T17:09:13.082Z,6.23
2023-05-09T17:11:41.040Z,4.40
2023-05-09T17:14:08.991Z,5.47
2023-05-09T17:16:38.275Z,3.30
2023-05-09T17:19:06.464Z,4.13
2023-05-09T17:21:34.360Z,4.33
2023-05-09T17:24:03.117Z,5.20
2023-05-09T17:26:32.300Z,3.67
2023-05-09T17:29:00.184Z,3.47
2023-05-09T17:31:28.176Z,7.13
2023-05-09T17:33:56.053Z,5.47
2023-05-09T17:36:23.944Z,5.20
2023-05-09T17:38:52.255Z,7.20
2023-05-09T17:41:20.150Z,3.23
2023-05-09T17:43:51.831Z,1.70
2023-05-09T17:46:23.060Z,2.70
2023-05-09T17:48:51.904Z,3.10
2023-05-09T17:51:26.198Z,2.73
2023-05-09T17:53:54.221Z,4.83
2023-05-09T17:56:25.296Z,3.20
2023-05-09T17:58:54.633Z,3.20
2023-05-09T18:01:24.965Z,3.63
2023-05-09T18:03:52.970Z,3.60
2023-05-09T18:06:24.098Z,4.33
2023-05-09T18:08:51.924Z,10.17
2023-05-09T18:11:19.728Z,1.40
2023-05-09T18:13:48.258Z,5.40
2023-05-09T18:16:17.539Z,2.73
2023-05-09T18:18:45.893Z,4.83
2023-05-09T18:21:13.946Z,2.57
2023-05-09T18:23:41.809Z,2.77
2023-05-09T18:26:09.754Z,3.40
2023-05-09T18:28:39.697Z,4.90
2023-05-09T18:31:10.120Z,4.40
2023-05-09T18:33:40.024Z,4.23
2023-05-09T18:36:10.026Z,2.27
2023-05-09T18:38:43.234Z,2.90
2023-05-09T18:41:12.225Z,6.47
2023-05-09T18:43:46.016Z,3.70
2023-05-09T18:46:17.215Z,3.43
2023-05-09T18:48:47.985Z,2.47
2023-05-09T18:51:16.233Z,8.20
2023-05-09T18:53:44.144Z,2.47
2023-05-09T18:56:12.024Z,1.30
2023-05-09T18:58:39.876Z,2.30
2023-05-09T19:01:11.325Z,2.07
2023-05-09T19:03:43.584Z,2.50
2023-05-09T19:06:13.768Z,4.17
2023-05-09T19:08:41.978Z,9.73
2023-05-09T19:11:09.955Z,7.10
2023-05-09T19:13:40.037Z,3.43
2023-05-09T19:16:09.460Z,2.87
2023-05-09T19:18:37.309Z,3.63
2023-05-09T19:21:05.377Z,2.43
2023-05-09T19:23:34.835Z,2.63
2023-05-09T19:26:03.278Z,2.30
2023-05-09T19:28:31.075Z,3.77
2023-05-09T19:30:59.031Z,3.30
2023-05-09T19:33:26.895Z,4.93
2023-05-09T19:35:54.745Z,4.97
2023-05-09T19:38:22.673Z,2.60
2023-05-09T19:40:51.909Z,7.83
2023-05-09T19:43:19.709Z,5.50
2023-05-09T19:45:47.563Z,5.40
2023-05-09T19:48:15.847Z,4.40
2023-05-09T19:50:44.286Z,4.60
2023-05-09T19:53:12.183Z,2.97
2023-05-09T19:55:40.159Z,8.97
2023-05-09T19:58:09.390Z,6.23
2023-05-09T20:00:38.838Z,6.00
2023-05-09T20:03:06.769Z,2.60
2023-05-09T20:05:34.884Z,5.03
2023-05-09T20:08:02.769Z,2.73
2023-05-09T20:10:30.853Z,5.27
2023-05-09T20:12:59.289Z,3.27
2023-05-09T20:15:28.568Z,5.53
2023-05-09T20:17:56.716Z,6.73
2023-05-09T20:20:24.478Z,4.17
2023-05-09T20:22:52.438Z,2.93
2023-05-09T20:25:20.347Z,2.83
2023-05-09T20:27:48.227Z,2.17
2023-05-09T20:30:17.366Z,3.23
2023-05-09T20:32:46.671Z,5.73
2023-05-09T20:35:14.486Z,3.10
2023-05-09T20:37:42.388Z,5.70
2023-05-09T20:40:10.999Z,4.47
2023-05-09T20:42:39.217Z,3.03
2023-05-09T20:45:08.277Z,3.70
2023-05-09T20:47:36.244Z,2.57
2023-05-09T20:50:06.309Z,4.90
2023-05-09T20:52:34.118Z,1.60
2023-05-09T20:55:02.001Z,2.03
2023-05-09T20:57:30.119Z,4.20
2023-05-09T20:59:57.969Z,15.37
2023-05-09T21:02:26.055Z,3.60
2023-05-09T21:04:53.890Z,4.27
2023-05-09T21:07:23.087Z,2.93
2023-05-09T21:09:51.441Z,2.83
2023-05-09T21:12:19.284Z,4.67
2023-05-09T21:14:47.137Z,3.67
2023-05-09T21:17:15.223Z,3.70
2023-05-09T21:19:43.137Z,2.07
2023-05-09T21:22:11.060Z,7.23
2023-05-09T21:24:40.287Z,2.93
2023-05-09T21:27:08.120Z,2.23
2023-05-09T21:29:35.936Z,4.47
2023-05-09T21:32:03.765Z,2.17
2023-05-09T21:34:31.625Z,4.13
2023-05-09T21:36:59.488Z,4.77
2023-05-09T21:39:27.350Z,4.60
2023-05-09T21:41:56.877Z,3.37
2023-05-09T21:44:25.141Z,5.27
2023-05-09T21:46:52.965Z,2.90
2023-05-09T21:49:21.810Z,3.60
2023-05-09T21:51:49.838Z,2.40
2023-05-09T21:54:17.737Z,2.23
2023-05-09T21:56:45.550Z,1.20
2023-05-09T21:59:14.970Z,8.53
2023-05-09T22:01:45.116Z,1.40
2023-05-09T22:04:13.665Z,1.53
2023-05-09T22:06:42.513Z,2.43
2023-05-09T22:09:11.013Z,3.17
2023-05-09T22:11:38.844Z,2.27
2023-05-09T22:14:07.331Z,4.50
2023-05-09T22:16:36.785Z,3.93
2023-05-09T22:19:04.895Z,2.90
2023-05-09T22:21:32.817Z,4.23
2023-05-09T22:24:00.591Z,1.83
2023-05-09T22:26:28.478Z,2.03
2023-05-09T22:28:57.097Z,1.70
2023-05-09T22:31:25.067Z,1.73
2023-05-09T22:33:54.241Z,6.17
2023-05-09T22:36:22.467Z,4.00
2023-05-09T22:38:50.401Z,1.17
2023-05-09T22:41:18.268Z,0.73
2023-05-09T22:43:46.266Z,0.90
2023-05-09T22:46:14.069Z,7.63
2023-05-09T22:48:41.921Z,1.97
2023-05-09T22:51:11.351Z,2.17
2023-05-09T22:53:39.193Z,1.20
2023-05-09T22:56:07.546Z,2.73
2023-05-09T22:58:35.384Z,1.73
2023-05-09T23:01:03.213Z,1.20
2023-05-09T23:20:58.466Z,2.00
2023-05-09T23:23:26.316Z,6.63
2023-05-09T23:25:54.366Z,2.13
2023-05-09T23:28:25.013Z,0.90
2023-05-09T23:30:52.826Z,1.67
2023-05-09T23:33:20.753Z,1.90
2023-05-09T23:35:48.686Z,1.83
2023-05-09T23:38:18.109Z,0.50
2023-05-09T23:40:45.966Z,2.57
2023-05-09T23:43:14.286Z,5.30
2023-05-09T23:45:42.645Z,1.03
2023-05-09T23:48:10.398Z,0.40
2023-05-09T23:50:38.151Z,2.50
2023-05-09T23:53:06.534Z,0.40
2023-05-09T23:55:35.605Z,0.30
2023-05-09T23:58:03.656Z,1.03
